createdAt,value
2023-03-18T17:20:20.759Z,35.40
2023-03-18T17:21:24.378Z,30.00
2023-03-18T17:22:29.900Z,34.90
2023-03-18T17:32:11.164Z,34.10
2023-03-18T17:33:29.114Z,37.30
2023-03-18T17:34:32.254Z,45.90
2023-03-18T17:35:36.114Z,68.70
2023-03-18T17:36:40.862Z,95.30
2023-03-18T17:37:44.021Z,62.82
2023-03-18T17:38:48.166Z,64.40
2023-03-18T17:39:51.525Z,70.10
2023-03-18T17:40:56.343Z,70.20
2023-03-18T17:41:59.610Z,68.73
2023-03-18T17:43:01.831Z,70.50
2023-03-18T17:44:27.205Z,67.30
2023-03-18T17:45:39.297Z,67.20
2023-03-18T17:46:43.746Z,64.00
2023-03-18T17:47:45.969Z,63.60
2023-03-18T17:48:50.128Z,63.11
2023-03-18T17:49:53.494Z,61.00
2023-03-18T17:52:18.212Z,60.40
2023-03-18T17:53:47.899Z,27.30
2023-03-18T17:54:52.097Z,24.80
2023-03-18T17:55:56.238Z,36.30
2023-03-18T17:57:00.122Z,39.90
2023-03-18T17:58:07.685Z,35.00
2023-03-18T18:00:29.171Z,35.50
2023-03-18T18:01:32.668Z,42.10
2023-03-18T18:02:35.905Z,38.40
2023-03-18T18:07:18.788Z,20.30
2023-03-18T18:08:23.078Z,20.40
2023-03-18T18:09:28.948Z,23.30
2023-03-18T18:10:36.365Z,20.10
2023-03-18T18:11:41.611Z,17.20
2023-03-18T18:12:48.593Z,19.90
2023-03-18T18:13:56.099Z,19.70
2023-03-18T18:15:02.504Z,15.00
2023-03-18T18:16:05.101Z,20.20
2023-03-18T18:17:16.250Z,19.82
2023-03-18T18:19:33.403Z,5.60
2023-03-18T18:20:35.624Z,17.50
2023-03-18T18:21:38.270Z,18.10
2023-03-18T18:22:44.234Z,16.60
2023-03-18T18:23:47.889Z,16.80
2023-03-18T18:24:51.303Z,19.20
2023-03-18T18:25:55.418Z,20.10
2023-03-18T18:27:00.843Z,17.70
2023-03-18T18:28:11.264Z,19.10
2023-03-18T18:29:16.949Z,17.20
2023-03-18T18:30:27.441Z,18.40
2023-03-18T18:31:29.503Z,18.30
2023-03-18T18:32:35.189Z,15.50
2023-03-18T18:33:40.735Z,19.30
2023-03-18T18:34:43.566Z,16.30
2023-03-18T18:35:45.729Z,14.27
2023-03-18T18:36:50.110Z,17.30
2023-03-18T18:37:52.943Z,15.70
2023-03-18T18:38:59.903Z,16.10
2023-03-18T18:40:09.293Z,15.60
2023-03-18T18:41:11.634Z,15.90
2023-03-18T18:42:13.796Z,17.30
2023-03-18T18:43:16.457Z,12.80
2023-03-18T18:44:18.611Z,16.30
2023-03-18T18:45:23.040Z,12.20
2023-03-18T18:46:26.685Z,12.70
2023-03-18T18:47:29.356Z,11.80
2023-03-18T18:49:45.140Z,15.00
2023-03-18T18:50:50.073Z,14.70
2023-03-18T18:51:55.543Z,16.00
2023-03-18T18:52:59.163Z,12.80
2023-03-18T18:54:02.727Z,14.00
2023-03-18T18:55:06.619Z,12.40
2023-03-18T18:56:25.381Z,10.70
2023-03-18T18:57:30.279Z,11.20
2023-03-18T18:58:32.726Z,11.70
2023-03-18T18:59:35.775Z,11.30
2023-03-18T19:00:39.291Z,10.20
2023-03-18T19:01:45.426Z,11.50
2023-03-18T19:02:56.983Z,13.20
2023-03-18T19:04:04.097Z,12.70
2023-03-18T19:05:09.151Z,12.80
2023-03-18T19:06:35.448Z,13.50
2023-03-18T19:07:43.449Z,13.90
2023-03-18T19:08:50.746Z,15.60
2023-03-18T19:09:57.460Z,13.20
2023-03-18T19:11:03.650Z,11.30
2023-03-18T19:12:12.950Z,15.80
2023-03-18T19:13:18.973Z,12.40
2023-03-18T19:14:26.320Z,12.30
2023-03-18T19:15:28.539Z,13.10
2023-03-18T19:16:33.681Z,12.50
2023-03-18T19:17:37.700Z,13.20
2023-03-18T19:18:42.093Z,12.70
2023-03-18T19:19:49.028Z,13.60
2023-03-18T19:20:53.362Z,14.10
2023-03-18T19:21:58.549Z,14.50
2023-03-18T19:23:08.070Z,12.40
2023-03-18T19:25:31.362Z,16.80
2023-03-18T19:27:45.963Z,14.80
2023-03-18T19:29:04.831Z,16.20
2023-03-18T19:30:00.639Z,17.40
2023-03-18T19:31:04.820Z,14.45
2023-03-18T19:32:18.999Z,15.80
2023-03-18T19:33:21.642Z,16.20
2023-03-18T19:34:24.881Z,15.90
2023-03-18T19:35:27.111Z,13.40
2023-03-18T19:36:33.108Z,14.10
2023-03-18T19:37:38.140Z,18.90
2023-03-18T19:38:40.404Z,21.00
2023-03-18T19:39:44.561Z,14.80
2023-03-18T19:40:49.543Z,17.70
2023-03-18T19:41:51.964Z,15.20
2023-03-18T19:42:54.569Z,14.00
2023-03-18T19:45:14.773Z,18.00
2023-03-18T19:46:25.734Z,18.10
2023-03-18T19:47:30.233Z,13.30
2023-03-18T19:48:32.529Z,14.70
2023-03-18T19:49:36.077Z,16.70
2023-03-18T19:50:40.506Z,19.00
2023-03-18T19:51:43.490Z,15.30
2023-03-18T19:52:46.216Z,17.27
2023-03-18T19:53:48.777Z,15.90
2023-03-18T19:54:52.444Z,17.30
2023-03-18T19:55:55.098Z,16.60
2023-03-18T19:57:00.494Z,16.70
2023-03-18T19:58:03.326Z,17.40
2023-03-18T19:59:09.514Z,16.60
2023-03-18T20:01:34.786Z,15.10
2023-03-18T20:02:37.846Z,16.60
2023-03-18T20:03:40.274Z,18.20
2023-03-18T20:04:43.371Z,16.40
2023-03-18T20:05:47.116Z,19.60
2023-03-18T20:06:49.414Z,17.70
2023-03-18T20:07:52.124Z,18.40
2023-03-18T20:08:54.436Z,16.90
2023-03-18T20:09:56.932Z,21.10
2023-03-18T20:10:59.577Z,15.50
2023-03-18T20:12:04.392Z,16.82
2023-03-18T20:13:10.883Z,17.20
2023-03-18T20:14:31.679Z,19.40
2023-03-18T20:15:35.310Z,19.80
2023-03-18T20:16:37.741Z,21.30
2023-03-18T20:17:43.243Z,16.70
2023-03-18T20:18:45.761Z,17.10
2023-03-18T20:19:47.925Z,19.10
2023-03-18T20:20:50.976Z,19.50
2023-03-18T20:21:53.201Z,20.20
2023-03-18T20:23:03.080Z,19.90
2023-03-18T20:24:08.934Z,17.80
2023-03-18T20:26:29.944Z,20.50
2023-03-18T20:27:32.765Z,21.50
2023-03-18T20:28:36.518Z,19.90
2023-03-18T20:29:38.685Z,15.60
2023-03-18T20:30:47.443Z,22.50
2023-03-18T20:31:54.344Z,19.00
2023-03-18T20:32:59.916Z,19.90
2023-03-18T20:34:07.628Z,18.00
2023-03-18T20:35:10.433Z,22.60
2023-03-18T20:36:19.210Z,19.80
2023-03-18T20:38:57.360Z,24.90
2023-03-18T20:41:19.581Z,29.00
2023-03-18T20:42:24.066Z,21.10
2023-03-18T20:43:29.127Z,24.90
2023-03-18T20:44:46.455Z,25.00
2023-03-18T20:45:52.622Z,25.00
2023-03-18T20:46:55.318Z,29.60
2023-03-18T20:47:57.620Z,28.10
2023-03-18T20:48:59.860Z,17.20
2023-03-18T20:50:03.062Z,32.70
2023-03-18T20:52:44.823Z,48.80
2023-03-18T20:53:53.391Z,48.10
2023-03-18T20:54:57.703Z,50.60
2023-03-18T20:56:01.397Z,52.80
2023-03-18T20:57:04.037Z,46.90
2023-03-18T20:58:10.341Z,48.60
2023-03-18T20:59:12.576Z,47.50
2023-03-18T21:00:17.644Z,44.90
2023-03-18T21:01:20.353Z,48.90
2023-03-18T21:02:35.142Z,45.10
2023-03-18T21:03:37.631Z,48.50
2023-03-18T21:04:40.961Z,45.50
2023-03-18T21:05:43.059Z,41.10
2023-03-18T21:06:45.297Z,39.60
2023-03-18T21:07:48.139Z,41.00
2023-03-18T21:08:50.306Z,35.70
2023-03-18T21:09:54.858Z,40.20
2023-03-18T21:11:01.493Z,31.30
2023-03-18T21:12:05.523Z,35.90
2023-03-18T21:14:42.197Z,46.90
2023-03-18T21:15:46.549Z,46.40
2023-03-18T21:16:49.777Z,51.70
2023-03-18T21:17:57.972Z,52.27
2023-03-18T21:19:03.461Z,51.90
2023-03-18T21:21:40.805Z,53.20
2023-03-18T21:22:47.901Z,45.50
2023-03-18T21:23:52.917Z,50.80
2023-03-18T21:25:01.905Z,51.70
2023-03-18T21:26:12.145Z,51.40
2023-03-18T21:27:23.841Z,52.50
2023-03-18T21:29:48.698Z,57.30
2023-03-18T21:30:58.397Z,52.00
2023-03-18T21:32:01.217Z,52.30
2023-03-18T21:34:19.647Z,52.00
2023-03-18T21:35:25.310Z,58.30
2023-03-18T21:36:29.143Z,52.60
2023-03-18T21:37:31.841Z,52.40
2023-03-18T21:38:33.969Z,50.50
2023-03-18T21:39:36.064Z,54.20
2023-03-18T21:40:44.875Z,51.00
2023-03-18T21:41:48.754Z,49.20
2023-03-18T21:42:54.160Z,53.30
2023-03-18T21:43:58.169Z,49.90
2023-03-18T21:45:00.985Z,49.90
2023-03-18T21:46:07.368Z,51.10
2023-03-18T21:47:17.847Z,46.70
2023-03-18T21:48:20.781Z,45.40
2023-03-18T21:49:33.886Z,46.40
2023-03-18T21:50:40.658Z,43.30
2023-03-18T21:51:44.751Z,46.30
2023-03-18T21:52:48.187Z,47.60
2023-03-18T21:53:54.674Z,52.80
2023-03-18T21:55:10.307Z,44.00
2023-03-18T21:56:13.819Z,49.40
2023-03-18T21:57:19.135Z,49.30
2023-03-18T21:58:27.114Z,49.40
2023-03-18T21:59:32.968Z,43.50
2023-03-18T22:00:35.502Z,50.40
2023-03-18T22:01:40.899Z,50.50
2023-03-18T22:02:48.794Z,53.00
2023-03-18T22:03:51.120Z,49.30
2023-03-18T22:05:01.676Z,50.00
2023-03-18T22:06:05.721Z,49.30
2023-03-18T22:07:19.811Z,52.10
2023-03-18T22:08:26.073Z,50.20
2023-03-18T22:09:29.927Z,51.00
2023-03-18T22:10:33.356Z,52.50
2023-03-18T22:11:37.818Z,51.20
2023-03-18T22:12:43.405Z,47.10
2023-03-18T22:13:52.584Z,55.00
2023-03-18T22:14:56.020Z,53.10
2023-03-18T22:16:00.447Z,58.00
2023-03-18T22:18:45.664Z,64.60
2023-03-18T22:19:58.649Z,65.20
2023-03-18T22:21:01.183Z,61.40
2023-03-18T22:22:07.564Z,57.90
2023-03-18T22:23:19.225Z,61.10
2023-03-18T22:24:21.479Z,58.40
2023-03-18T22:25:35.832Z,65.20
2023-03-18T22:26:43.437Z,70.90
2023-03-18T22:27:47.270Z,66.70
2023-03-18T22:28:52.629Z,63.80
2023-03-18T22:29:57.948Z,60.00
2023-03-18T22:31:05.270Z,56.20
2023-03-18T22:32:27.413Z,59.20
2023-03-18T22:33:33.571Z,58.10
2023-03-18T22:34:35.732Z,53.40
2023-03-18T22:35:38.119Z,29.00
2023-03-18T22:36:41.421Z,57.00
2023-03-18T22:37:54.412Z,54.20
2023-03-18T22:38:58.832Z,56.50
2023-03-18T22:40:02.082Z,51.30
2023-03-18T22:41:04.533Z,58.60
2023-03-18T22:42:10.275Z,53.30
2023-03-18T22:43:33.201Z,54.10
2023-03-18T22:44:35.839Z,51.90
2023-03-18T22:45:40.687Z,54.60
2023-03-18T22:46:49.125Z,49.90
2023-03-18T22:49:15.069Z,56.80
2023-03-18T22:50:18.471Z,53.20
2023-03-18T22:51:28.138Z,51.50
2023-03-18T22:52:32.231Z,58.30
2023-03-18T22:54:53.059Z,57.10
2023-03-18T22:56:17.294Z,52.10
2023-03-18T22:57:26.559Z,51.60
2023-03-18T22:58:30.963Z,51.20
2023-03-18T22:59:33.999Z,53.80
2023-03-18T23:00:41.145Z,53.70
2023-03-18T23:01:44.686Z,56.80
2023-03-18T23:02:50.406Z,57.10
2023-03-18T23:03:54.424Z,56.10
2023-03-18T23:04:56.851Z,58.40
2023-03-18T23:06:16.370Z,55.70
2023-03-18T23:07:31.940Z,55.00
2023-03-18T23:08:34.472Z,34.20
2023-03-18T23:09:50.410Z,58.50
2023-03-18T23:10:47.877Z,61.40
2023-03-18T23:11:49.996Z,61.40
2023-03-18T23:12:53.042Z,67.91
2023-03-18T23:13:56.682Z,65.10
2023-03-18T23:15:01.700Z,63.40
2023-03-18T23:16:17.290Z,65.70
2023-03-18T23:17:26.503Z,62.00
2023-03-18T23:18:33.961Z,67.30
2023-03-18T23:19:38.691Z,64.20
2023-03-18T23:20:45.691Z,62.50
2023-03-18T23:21:47.848Z,60.20
2023-03-18T23:22:50.031Z,65.60
2023-03-18T23:23:53.130Z,62.33
2023-03-18T23:25:00.114Z,66.00
2023-03-18T23:26:02.551Z,61.00
2023-03-18T23:27:10.324Z,61.40
2023-03-18T23:28:18.046Z,59.20
2023-03-18T23:29:20.519Z,53.10
2023-03-18T23:30:24.802Z,58.10
2023-03-18T23:31:28.441Z,56.30
2023-03-18T23:32:33.670Z,56.50
2023-03-18T23:33:35.864Z,60.30
2023-03-18T23:34:42.596Z,55.30
2023-03-18T23:35:45.595Z,61.30
2023-03-18T23:36:52.624Z,59.36
2023-03-18T23:38:04.135Z,51.60
2023-03-18T23:39:06.822Z,65.60
2023-03-18T23:40:11.704Z,63.80
2023-03-18T23:41:14.210Z,62.50
2023-03-18T23:42:20.233Z,58.20
2023-03-18T23:43:29.562Z,58.70
2023-03-18T23:44:34.770Z,58.00
2023-03-18T23:45:39.218Z,54.80
2023-03-18T23:46:49.326Z,51.10
2023-03-18T23:47:54.545Z,54.20
2023-03-18T23:49:06.169Z,33.20
2023-03-18T23:50:10.695Z,49.70
2023-03-18T23:51:14.689Z,50.60
2023-03-18T23:52:16.798Z,49.70
2023-03-18T23:53:19.516Z,44.30
2023-03-18T23:54:22.570Z,50.70
2023-03-18T23:55:45.648Z,48.18
2023-03-18T23:56:31.949Z,51.40
2023-03-18T23:57:43.763Z,50.30
2023-03-18T23:58:46.047Z,46.00
2023-03-18T23:59:48.734Z,47.30
